Carlisle, MA (01741)

11:49 PM EDT on August 22, 2014 (GMT -0400)
Carlisle/Westford | Change Station
CLOSE
Current Station
Personal Weather Station
Location: Carlisle, MA
Elevation: 210 ft
Nearby Weather Stations

Elev 210 ft 42.54 °N, 71.37 °W | Updated 1 minute ago

Overcast
Overcast
61.8 °F
Feels Like 61.8 °F
N
0.0
Wind Variable Wind from North

Today
High -- | Low -- °F
--% Chance of Precip.
Yesterday
High -- | Low -- °F
Precip. -- in
5:59 AM 7:36 PM
Waning Crescent, 5% visible
Pressure 30.14 in
Visibility 10.0 miles
Clouds Mostly Cloudy 1100 ft
Mostly Cloudy 2000 ft
Overcast 10000 ft
Dew Point 60 °F
Humidity 93%
Rainfall 0.00 in
Snow Depth Not available.
UV 0 out of 12
Pollen 5.40 out of 12
Air Quality Not available.
Flu Activity Not available.
METAR KBED 230256Z AUTO 01005KT 10SM BKN011 BKN020 OVC100 17/16 A3010 RMK AO2 SLP205 T01720161 51003 TSNO

More Conditions Fewer Conditions

Pressure 30.14 in
Visibility 10.0 miles
Clouds Mostly Cloudy 1100 ft
Mostly Cloudy 2000 ft
Overcast 10000 ft
Dew Point 60 °F
Humidity 93%
Rainfall 0.00 in
Snow Depth Not available.
UV 0 out of 12
Pollen 5.40 out of 12
Air Quality Not available.
Flu Activity Not available.
METAR KBED 230256Z AUTO 01005KT 10SM BKN011 BKN020 OVC100 17/16 A3010 RMK AO2 SLP205 T01720161 51003 TSNO

More Conditions Fewer Conditions

10-Day Weather Forecast

Almanac

Astronomy

Aug. 22, 2014 Rise Set
Actual Time 5:59 AM EDT 7:36 PM EDT
Civil Twilight 5:29 AM EDT 8:05 PM EDT
Nautical Twilight 4:53 AM EDT 8:41 PM EDT
Astronomical Twilight 4:15 AM EDT 9:19 PM EDT
Moon 3:17 AM EDT (8/22) 5:43 PM EDT (8/22)
Length of Visible Light 14h 35m
Length of Day
13h 36m
Tomorrow will be 2m 39s shorter.
Waning Crescent, 5% of the Moon is Illuminated
Today
Waning Crescent
Aug 25
New
Sep 2
First Quarter
Sep 8
Full
Sep 15
Last Quarter

Today's Extremes

State Highs State Lows

Community

WunderPhotos

Upload Photos

1,746,352 photos uploaded!

WunderBlogs® & News

Nearby

Air Quality

  Air Quality AQ Index Pollutant
Friday Good
PM2.5
Friday Good
OZONE
Saturday Good
PM2.5
Saturday Good
OZONE

Snow Depth

Station Depth Elevation
No new snow has been reported.

Earthquake Activity

City Distance Mag. Time & Date
No recent earthquake activity has been reported nearby.
Minimum magnitude displayed is 2.5.

Coastal Water Temperatures

Place Temperature
Boston, MA 66.0 °F
Providence, RI 72.0 °F
Fall River, MA 73.0 °F
Conimicut Light, RI 73.9 °F

Nearby Weather Stations